sensor_id;sensor_type;location;lat;lon;timestamp;P1;durP1;ratioP1;P2;durP2;ratioP2
74922;SDS011;64715;44.760;37.678;2022-10-31T00:00:59;8.48;;;2.60;;
74922;SDS011;64715;44.760;37.678;2022-10-31T00:02:00;9.15;;;3.00;;
74922;SDS011;64715;44.760;37.678;2022-10-31T00:03:01;8.57;;;2.97;;
74922;SDS011;64715;44.760;37.678;2022-10-31T00:04:02;9.30;;;2.65;;
74922;SDS011;64715;44.760;37.678;2022-10-31T00:05:04;9.25;;;2.88;;
74922;SDS011;64715;44.760;37.678;2022-10-31T00:06:06;7.87;;;2.77;;
74922;SDS011;64715;44.760;37.678;2022-10-31T00:07:07;12.05;;;2.90;;
74922;SDS011;64715;44.760;37.678;2022-10-31T00:08:08;9.20;;;3.00;;
74922;SDS011;64715;44.760;37.678;2022-10-31T00:09:09;7.85;;;2.55;;
74922;SDS011;64715;44.760;37.678;2022-10-31T00:10:11;6.85;;;2.63;;
74922;SDS011;64715;44.760;37.678;2022-10-31T00:11:12;8.70;;;3.03;;
74922;SDS011;64715;44.760;37.678;2022-10-31T00:12:13;9.05;;;2.63;;
74922;SDS011;64715;44.760;37.678;2022-10-31T00:13:14;10.70;;;2.60;;
74922;SDS011;64715;44.760;37.678;2022-10-31T00:14:15;11.30;;;3.10;;
74922;SDS011;64715;44.760;37.678;2022-10-31T00:15:16;8.43;;;2.88;;
74922;SDS011;64715;44.760;37.678;2022-10-31T00:16:21;7.90;;;2.80;;
74922;SDS011;64715;44.760;37.678;2022-10-31T00:17:23;7.68;;;2.92;;
74922;SDS011;64715;44.760;37.678;2022-10-31T00:18:24;8.10;;;2.40;;
74922;SDS011;64715;44.760;37.678;2022-10-31T00:19:25;10.82;;;3.00;;
74922;SDS011;64715;44.760;37.678;2022-10-31T00:20:26;9.90;;;3.00;;
74922;SDS011;64715;44.760;37.678;2022-10-31T00:21:28;9.37;;;3.20;;
74922;SDS011;64715;44.760;37.678;2022-10-31T00:22:30;9.57;;;2.92;;
74922;SDS011;64715;44.760;37.678;2022-10-31T00:23:31;9.20;;;3.28;;
74922;SDS011;64715;44.760;37.678;2022-10-31T00:24:31;9.13;;;3.30;;
74922;SDS011;64715;44.760;37.678;2022-10-31T00:25:33;10.25;;;3.38;;
74922;SDS011;64715;44.760;37.678;2022-10-31T00:26:36;13.15;;;3.30;;
74922;SDS011;64715;44.760;37.678;2022-10-31T00:27:39;9.85;;;3.35;;
74922;SDS011;64715;44.760;37.678;2022-10-31T00:28:40;10.07;;;3.30;;
74922;SDS011;64715;44.760;37.678;2022-10-31T00:29:41;14.00;;;3.88;;
74922;SDS011;64715;44.760;37.678;2022-10-31T00:30:44;10.02;;;3.92;;
74922;SDS011;64715;44.760;37.678;2022-10-31T00:31:45;10.60;;;3.45;;
74922;SDS011;64715;44.760;37.678;2022-10-31T00:32:46;11.52;;;4.00;;
74922;SDS011;64715;44.760;37.678;2022-10-31T00:33:47;11.25;;;3.80;;
74922;SDS011;64715;44.760;37.678;2022-10-31T00:34:50;12.25;;;4.35;;
74922;SDS011;64715;44.760;37.678;2022-10-31T00:35:52;10.35;;;3.72;;
74922;SDS011;64715;44.760;37.678;2022-10-31T00:36:53;11.60;;;3.60;;
74922;SDS011;64715;44.760;37.678;2022-10-31T00:37:54;10.35;;;3.65;;
74922;SDS011;64715;44.760;37.678;2022-10-31T00:38:55;10.75;;;3.78;;
74922;SDS011;64715;44.760;37.678;2022-10-31T00:39:57;12.27;;;3.78;;
74922;SDS011;64715;44.760;37.678;2022-10-31T00:40:59;13.48;;;3.47;;
74922;SDS011;64715;44.760;37.678;2022-10-31T00:42:00;12.02;;;3.80;;
74922;SDS011;64715;44.760;37.678;2022-10-31T00:43:01;9.55;;;3.55;;
74922;SDS011;64715;44.760;37.678;2022-10-31T00:44:02;9.77;;;3.30;;
74922;SDS011;64715;44.760;37.678;2022-10-31T00:45:03;14.48;;;3.92;;
74922;SDS011;64715;44.760;37.678;2022-10-31T00:46:06;10.70;;;3.72;;
74922;SDS011;64715;44.760;37.678;2022-10-31T00:47:07;12.25;;;4.00;;
74922;SDS011;64715;44.760;37.678;2022-10-31T00:48:08;11.38;;;3.42;;
74922;SDS011;64715;44.760;37.678;2022-10-31T00:49:10;15.93;;;5.93;;
74922;SDS011;64715;44.760;37.678;2022-10-31T00:50:11;16.33;;;5.43;;
74922;SDS011;64715;44.760;37.678;2022-10-31T00:51:12;14.50;;;5.10;;
74922;SDS011;64715;44.760;37.678;2022-10-31T00:52:15;11.27;;;4.00;;
74922;SDS011;64715;44.760;37.678;2022-10-31T00:53:16;11.50;;;3.78;;
74922;SDS011;64715;44.760;37.678;2022-10-31T00:54:17;12.77;;;4.10;;
74922;SDS011;64715;44.760;37.678;2022-10-31T00:55:18;9.32;;;3.45;;
74922;SDS011;64715;44.760;37.678;2022-10-31T00:56:19;11.38;;;3.80;;
74922;SDS011;64715;44.760;37.678;2022-10-31T00:57:20;10.98;;;3.72;;
74922;SDS011;64715;44.760;37.678;2022-10-31T00:58:21;12.63;;;3.83;;
74922;SDS011;64715;44.760;37.678;2022-10-31T00:59:22;9.50;;;3.38;;
74922;SDS011;64715;44.760;37.678;2022-10-31T01:00:24;11.27;;;3.83;;
74922;SDS011;64715;44.760;37.678;2022-10-31T01:01:26;11.50;;;4.10;;
74922;SDS011;64715;44.760;37.678;2022-10-31T01:02:27;15.13;;;4.05;;
74922;SDS011;64715;44.760;37.678;2022-10-31T01:03:29;13.70;;;4.63;;
74922;SDS011;64715;44.760;37.678;2022-10-31T01:04:32;11.63;;;4.20;;
74922;SDS011;64715;44.760;37.678;2022-10-31T01:05:33;12.40;;;4.40;;
74922;SDS011;64715;44.760;37.678;2022-10-31T01:06:36;14.63;;;4.40;;
74922;SDS011;64715;44.760;37.678;2022-10-31T01:07:37;13.40;;;5.10;;
74922;SDS011;64715;44.760;37.678;2022-10-31T01:08:42;11.38;;;4.57;;
74922;SDS011;64715;44.760;37.678;2022-10-31T01:09:46;16.58;;;5.20;;
74922;SDS011;64715;44.760;37.678;2022-10-31T01:10:57;16.88;;;5.80;;
74922;SDS011;64715;44.760;37.678;2022-10-31T01:12:03;17.50;;;5.80;;
74922;SDS011;64715;44.760;37.678;2022-10-31T01:13:04;18.70;;;5.45;;
74922;SDS011;64715;44.760;37.678;2022-10-31T01:14:05;27.40;;;5.70;;
74922;SDS011;64715;44.760;37.678;2022-10-31T01:15:07;18.00;;;5.05;;
74922;SDS011;64715;44.760;37.678;2022-10-31T01:16:11;20.10;;;5.70;;
74922;SDS011;64715;44.760;37.678;2022-10-31T01:17:13;22.90;;;6.40;;
74922;SDS011;64715;44.760;37.678;2022-10-31T01:18:14;25.10;;;5.78;;
74922;SDS011;64715;44.760;37.678;2022-10-31T01:19:15;25.60;;;6.07;;
74922;SDS011;64715;44.760;37.678;2022-10-31T01:20:17;36.30;;;6.22;;
74922;SDS011;64715;44.760;37.678;2022-10-31T01:21:22;24.13;;;5.50;;
74922;SDS011;64715;44.760;37.678;2022-10-31T01:22:25;17.75;;;5.43;;
74922;SDS011;64715;44.760;37.678;2022-10-31T01:23:26;21.50;;;5.72;;
74922;SDS011;64715;44.760;37.678;2022-10-31T01:24:28;17.38;;;5.25;;
74922;SDS011;64715;44.760;37.678;2022-10-31T01:25:29;11.67;;;4.00;;
74922;SDS011;64715;44.760;37.678;2022-10-31T01:26:30;10.90;;;3.63;;
74922;SDS011;64715;44.760;37.678;2022-10-31T01:27:33;11.52;;;3.97;;
74922;SDS011;64715;44.760;37.678;2022-10-31T01:28:35;11.13;;;4.10;;
74922;SDS011;64715;44.760;37.678;2022-10-31T01:29:37;11.98;;;3.88;;
74922;SDS011;64715;44.760;37.678;2022-10-31T01:30:38;12.95;;;4.32;;
74922;SDS011;64715;44.760;37.678;2022-10-31T01:31:39;11.05;;;4.28;;
74922;SDS011;64715;44.760;37.678;2022-10-31T01:32:40;13.48;;;4.32;;
74922;SDS011;64715;44.760;37.678;2022-10-31T01:33:41;15.13;;;4.50;;
74922;SDS011;64715;44.760;37.678;2022-10-31T01:34:42;17.25;;;4.93;;
74922;SDS011;64715;44.760;37.678;2022-10-31T01:35:43;21.35;;;5.03;;
74922;SDS011;64715;44.760;37.678;2022-10-31T01:36:45;16.52;;;5.00;;
74922;SDS011;64715;44.760;37.678;2022-10-31T01:37:51;16.08;;;5.00;;
74922;SDS011;64715;44.760;37.678;2022-10-31T01:38:52;17.33;;;4.78;;
74922;SDS011;64715;44.760;37.678;2022-10-31T01:39:56;16.77;;;4.88;;
74922;SDS011;64715;44.760;37.678;2022-10-31T01:40:57;22.17;;;5.03;;
74922;SDS011;64715;44.760;37.678;2022-10-31T01:42:00;44.45;;;5.97;;
74922;SDS011;64715;44.760;37.678;2022-10-31T01:43:01;30.92;;;5.20;;
74922;SDS011;64715;44.760;37.678;2022-10-31T01:45:15;16.77;;;4.43;;
74922;SDS011;64715;44.760;37.678;2022-10-31T01:47:38;19.20;;;5.22;;
74922;SDS011;64715;44.760;37.678;2022-10-31T01:48:45;18.10;;;5.10;;
74922;SDS011;64715;44.760;37.678;2022-10-31T01:49:51;14.25;;;4.55;;
74922;SDS011;64715;44.760;37.678;2022-10-31T01:50:57;18.87;;;4.37;;
74922;SDS011;64715;44.760;37.678;2022-10-31T01:51:59;15.35;;;5.25;;
74922;SDS011;64715;44.760;37.678;2022-10-31T01:53:08;10.82;;;3.90;;
74922;SDS011;64715;44.760;37.678;2022-10-31T01:54:12;11.07;;;3.80;;
74922;SDS011;64715;44.760;37.678;2022-10-31T01:55:25;11.50;;;3.55;;
74922;SDS011;64715;44.760;37.678;2022-10-31T01:56:30;10.52;;;3.95;;
74922;SDS011;64715;44.760;37.678;2022-10-31T01:57:33;10.75;;;4.20;;
74922;SDS011;64715;44.760;37.678;2022-10-31T01:58:36;17.60;;;4.75;;
74922;SDS011;64715;44.760;37.678;2022-10-31T01:59:39;10.95;;;3.75;;
74922;SDS011;64715;44.760;37.678;2022-10-31T02:00:47;9.77;;;3.40;;
74922;SDS011;64715;44.760;37.678;2022-10-31T02:01:52;10.87;;;3.47;;
74922;SDS011;64715;44.760;37.678;2022-10-31T02:02:53;9.88;;;3.40;;
74922;SDS011;64715;44.760;37.678;2022-10-31T02:03:56;10.88;;;3.83;;
74922;SDS011;64715;44.760;37.678;2022-10-31T02:04:58;11.88;;;4.20;;
74922;SDS011;64715;44.760;37.678;2022-10-31T02:06:03;10.60;;;4.55;;
74922;SDS011;64715;44.760;37.678;2022-10-31T02:07:16;10.68;;;3.42;;
74922;SDS011;64715;44.760;37.678;2022-10-31T02:08:28;11.30;;;5.05;;
74922;SDS011;64715;44.760;37.678;2022-10-31T02:09:31;11.65;;;5.30;;
74922;SDS011;64715;44.760;37.678;2022-10-31T02:10:36;16.73;;;4.47;;
74922;SDS011;64715;44.760;37.678;2022-10-31T02:11:38;18.05;;;4.60;;
74922;SDS011;64715;44.760;37.678;2022-10-31T02:12:40;11.10;;;4.17;;
74922;SDS011;64715;44.760;37.678;2022-10-31T02:13:44;11.15;;;4.30;;
74922;SDS011;64715;44.760;37.678;2022-10-31T02:14:45;15.63;;;4.40;;
74922;SDS011;64715;44.760;37.678;2022-10-31T02:15:47;10.77;;;4.10;;
74922;SDS011;64715;44.760;37.678;2022-10-31T02:16:53;12.90;;;4.38;;
74922;SDS011;64715;44.760;37.678;2022-10-31T02:17:54;13.60;;;4.40;;
74922;SDS011;64715;44.760;37.678;2022-10-31T02:18:55;11.55;;;4.15;;
74922;SDS011;64715;44.760;37.678;2022-10-31T02:21:17;16.02;;;4.18;;
74922;SDS011;64715;44.760;37.678;2022-10-31T02:22:30;10.55;;;3.80;;
74922;SDS011;64715;44.760;37.678;2022-10-31T02:23:41;13.03;;;3.87;;
74922;SDS011;64715;44.760;37.678;2022-10-31T02:30:40;10.43;;;3.50;;
74922;SDS011;64715;44.760;37.678;2022-10-31T02:31:56;9.93;;;3.72;;
74922;SDS011;64715;44.760;37.678;2022-10-31T02:34:48;12.82;;;3.60;;
74922;SDS011;64715;44.760;37.678;2022-10-31T02:37:24;9.37;;;3.30;;
74922;SDS011;64715;44.760;37.678;2022-10-31T02:44:27;11.02;;;3.80;;
74922;SDS011;64715;44.760;37.678;2022-10-31T02:45:48;11.75;;;3.90;;
74922;SDS011;64715;44.760;37.678;2022-10-31T02:47:11;12.07;;;3.80;;
74922;SDS011;64715;44.760;37.678;2022-10-31T02:48:26;9.48;;;3.50;;
74922;SDS011;64715;44.760;37.678;2022-10-31T02:50:54;10.57;;;3.30;;
74922;SDS011;64715;44.760;37.678;2022-10-31T02:51:58;11.25;;;3.67;;
74922;SDS011;64715;44.760;37.678;2022-10-31T02:53:00;12.02;;;4.10;;
74922;SDS011;64715;44.760;37.678;2022-10-31T02:54:02;11.35;;;4.30;;
74922;SDS011;64715;44.760;37.678;2022-10-31T02:55:09;12.00;;;4.10;;
74922;SDS011;64715;44.760;37.678;2022-10-31T02:56:36;14.30;;;4.00;;
74922;SDS011;64715;44.760;37.678;2022-10-31T02:57:37;14.05;;;4.65;;
74922;SDS011;64715;44.760;37.678;2022-10-31T02:58:41;14.07;;;4.75;;
74922;SDS011;64715;44.760;37.678;2022-10-31T02:59:48;11.07;;;4.03;;
74922;SDS011;64715;44.760;37.678;2022-10-31T03:00:58;10.48;;;4.25;;
74922;SDS011;64715;44.760;37.678;2022-10-31T03:02:12;11.90;;;4.57;;
74922;SDS011;64715;44.760;37.678;2022-10-31T03:06:49;12.60;;;4.93;;
74922;SDS011;64715;44.760;37.678;2022-10-31T03:08:11;17.42;;;5.13;;
74922;SDS011;64715;44.760;37.678;2022-10-31T03:11:41;13.70;;;5.30;;
74922;SDS011;64715;44.760;37.678;2022-10-31T03:12:53;15.17;;;5.90;;
74922;SDS011;64715;44.760;37.678;2022-10-31T03:14:25;11.77;;;5.03;;
74922;SDS011;64715;44.760;37.678;2022-10-31T03:15:51;15.13;;;5.95;;
74922;SDS011;64715;44.760;37.678;2022-10-31T03:16:57;14.20;;;5.97;;
74922;SDS011;64715;44.760;37.678;2022-10-31T03:19:19;15.95;;;5.45;;
74922;SDS011;64715;44.760;37.678;2022-10-31T03:20:31;12.98;;;5.43;;
74922;SDS011;64715;44.760;37.678;2022-10-31T03:21:45;15.20;;;5.50;;
74922;SDS011;64715;44.760;37.678;2022-10-31T03:22:50;13.00;;;5.68;;
74922;SDS011;64715;44.760;37.678;2022-10-31T03:23:55;13.47;;;5.90;;
74922;SDS011;64715;44.760;37.678;2022-10-31T03:24:58;15.17;;;5.80;;
74922;SDS011;64715;44.760;37.678;2022-10-31T03:26:04;12.93;;;5.22;;
74922;SDS011;64715;44.760;37.678;2022-10-31T03:27:07;14.88;;;5.93;;
74922;SDS011;64715;44.760;37.678;2022-10-31T03:28:14;13.57;;;5.30;;
74922;SDS011;64715;44.760;37.678;2022-10-31T03:29:19;12.18;;;5.72;;
74922;SDS011;64715;44.760;37.678;2022-10-31T03:30:25;13.93;;;5.72;;
74922;SDS011;64715;44.760;37.678;2022-10-31T03:31:36;15.93;;;5.90;;
74922;SDS011;64715;44.760;37.678;2022-10-31T03:32:58;16.67;;;5.85;;
74922;SDS011;64715;44.760;37.678;2022-10-31T03:34:05;18.52;;;6.18;;
74922;SDS011;64715;44.760;37.678;2022-10-31T03:35:08;16.27;;;6.00;;
74922;SDS011;64715;44.760;37.678;2022-10-31T03:36:11;18.07;;;5.90;;
74922;SDS011;64715;44.760;37.678;2022-10-31T03:37:19;13.93;;;5.50;;
74922;SDS011;64715;44.760;37.678;2022-10-31T03:38:23;13.48;;;5.55;;
74922;SDS011;64715;44.760;37.678;2022-10-31T03:39:24;15.82;;;5.80;;
74922;SDS011;64715;44.760;37.678;2022-10-31T03:40:27;15.10;;;5.97;;
74922;SDS011;64715;44.760;37.678;2022-10-31T03:41:30;14.52;;;5.65;;
74922;SDS011;64715;44.760;37.678;2022-10-31T03:42:37;13.98;;;5.55;;
74922;SDS011;64715;44.760;37.678;2022-10-31T03:43:42;14.27;;;5.60;;
74922;SDS011;64715;44.760;37.678;2022-10-31T03:44:51;15.25;;;5.35;;
74922;SDS011;64715;44.760;37.678;2022-10-31T03:45:56;14.73;;;5.93;;
74922;SDS011;64715;44.760;37.678;2022-10-31T03:46:58;15.23;;;5.73;;
74922;SDS011;64715;44.760;37.678;2022-10-31T03:48:00;15.50;;;6.35;;
74922;SDS011;64715;44.760;37.678;2022-10-31T03:49:01;15.77;;;5.80;;
74922;SDS011;64715;44.760;37.678;2022-10-31T03:50:04;14.50;;;5.65;;
74922;SDS011;64715;44.760;37.678;2022-10-31T03:53:39;17.83;;;5.70;;
74922;SDS011;64715;44.760;37.678;2022-10-31T03:54:47;16.58;;;6.35;;
74922;SDS011;64715;44.760;37.678;2022-10-31T03:56:07;20.98;;;6.22;;
74922;SDS011;64715;44.760;37.678;2022-10-31T03:57:39;18.10;;;6.60;;
74922;SDS011;64715;44.760;37.678;2022-10-31T03:58:49;18.57;;;6.43;;
74922;SDS011;64715;44.760;37.678;2022-10-31T04:00:04;20.83;;;7.03;;
74922;SDS011;64715;44.760;37.678;2022-10-31T04:01:19;18.23;;;6.68;;
74922;SDS011;64715;44.760;37.678;2022-10-31T04:02:24;16.67;;;6.60;;
74922;SDS011;64715;44.760;37.678;2022-10-31T04:03:30;19.17;;;6.85;;
74922;SDS011;64715;44.760;37.678;2022-10-31T04:04:34;17.23;;;6.65;;
74922;SDS011;64715;44.760;37.678;2022-10-31T04:05:39;16.27;;;6.38;;
74922;SDS011;64715;44.760;37.678;2022-10-31T04:06:43;17.65;;;6.68;;
74922;SDS011;64715;44.760;37.678;2022-10-31T04:07:46;22.02;;;7.20;;
74922;SDS011;64715;44.760;37.678;2022-10-31T04:08:52;24.20;;;7.37;;
74922;SDS011;64715;44.760;37.678;2022-10-31T04:09:58;18.17;;;6.70;;
74922;SDS011;64715;44.760;37.678;2022-10-31T04:11:02;20.95;;;6.38;;
74922;SDS011;64715;44.760;37.678;2022-10-31T04:12:06;18.83;;;6.43;;
74922;SDS011;64715;44.760;37.678;2022-10-31T04:13:32;16.30;;;6.00;;
74922;SDS011;64715;44.760;37.678;2022-10-31T04:14:42;17.60;;;6.07;;
74922;SDS011;64715;44.760;37.678;2022-10-31T04:15:46;17.27;;;6.72;;
74922;SDS011;64715;44.760;37.678;2022-10-31T04:16:51;16.95;;;6.53;;
74922;SDS011;64715;44.760;37.678;2022-10-31T04:17:56;20.20;;;6.57;;
74922;SDS011;64715;44.760;37.678;2022-10-31T04:19:00;16.70;;;6.80;;
74922;SDS011;64715;44.760;37.678;2022-10-31T04:20:02;20.37;;;6.73;;
74922;SDS011;64715;44.760;37.678;2022-10-31T04:21:05;18.90;;;6.90;;
74922;SDS011;64715;44.760;37.678;2022-10-31T04:22:08;19.25;;;6.57;;
74922;SDS011;64715;44.760;37.678;2022-10-31T04:23:18;17.90;;;6.60;;
74922;SDS011;64715;44.760;37.678;2022-10-31T04:24:23;17.15;;;6.60;;
74922;SDS011;64715;44.760;37.678;2022-10-31T04:25:24;18.42;;;6.45;;
74922;SDS011;64715;44.760;37.678;2022-10-31T04:26:27;17.65;;;6.25;;
74922;SDS011;64715;44.760;37.678;2022-10-31T04:27:28;16.95;;;6.68;;
74922;SDS011;64715;44.760;37.678;2022-10-31T04:28:29;17.25;;;6.25;;
74922;SDS011;64715;44.760;37.678;2022-10-31T04:29:31;21.27;;;7.22;;
74922;SDS011;64715;44.760;37.678;2022-10-31T04:30:32;16.40;;;6.87;;
74922;SDS011;64715;44.760;37.678;2022-10-31T04:31:34;19.50;;;6.53;;
74922;SDS011;64715;44.760;37.678;2022-10-31T04:32:36;18.63;;;6.38;;
74922;SDS011;64715;44.760;37.678;2022-10-31T04:33:38;23.45;;;6.88;;
74922;SDS011;64715;44.760;37.678;2022-10-31T04:34:40;22.50;;;7.90;;
74922;SDS011;64715;44.760;37.678;2022-10-31T04:35:41;18.95;;;7.57;;
74922;SDS011;64715;44.760;37.678;2022-10-31T04:36:43;21.42;;;8.40;;
74922;SDS011;64715;44.760;37.678;2022-10-31T04:37:44;21.60;;;8.70;;
74922;SDS011;64715;44.760;37.678;2022-10-31T04:38:45;20.50;;;8.77;;
74922;SDS011;64715;44.760;37.678;2022-10-31T04:40:03;27.07;;;13.00;;
74922;SDS011;64715;44.760;37.678;2022-10-31T04:41:31;20.48;;;9.80;;
74922;SDS011;64715;44.760;37.678;2022-10-31T04:42:35;26.02;;;10.82;;
74922;SDS011;64715;44.760;37.678;2022-10-31T04:43:38;27.20;;;11.27;;
74922;SDS011;64715;44.760;37.678;2022-10-31T04:44:39;26.05;;;12.10;;
74922;SDS011;64715;44.760;37.678;2022-10-31T04:45:40;25.50;;;12.10;;
74922;SDS011;64715;44.760;37.678;2022-10-31T04:46:42;26.27;;;13.35;;
74922;SDS011;64715;44.760;37.678;2022-10-31T04:47:44;23.13;;;10.32;;
74922;SDS011;64715;44.760;37.678;2022-10-31T04:48:45;27.07;;;8.83;;
74922;SDS011;64715;44.760;37.678;2022-10-31T04:49:46;24.95;;;8.80;;
74922;SDS011;64715;44.760;37.678;2022-10-31T04:50:47;22.90;;;10.38;;
74922;SDS011;64715;44.760;37.678;2022-10-31T04:51:49;21.77;;;10.20;;
74922;SDS011;64715;44.760;37.678;2022-10-31T04:52:50;23.52;;;12.27;;
74922;SDS011;64715;44.760;37.678;2022-10-31T04:53:55;26.08;;;9.82;;
74922;SDS011;64715;44.760;37.678;2022-10-31T04:55:02;23.02;;;9.80;;
74922;SDS011;64715;44.760;37.678;2022-10-31T04:56:23;24.88;;;10.77;;
74922;SDS011;64715;44.760;37.678;2022-10-31T04:57:29;21.10;;;9.52;;
74922;SDS011;64715;44.760;37.678;2022-10-31T04:58:33;24.53;;;9.10;;
74922;SDS011;64715;44.760;37.678;2022-10-31T04:59:34;19.13;;;9.90;;
74922;SDS011;64715;44.760;37.678;2022-10-31T05:00:37;21.77;;;10.10;;
74922;SDS011;64715;44.760;37.678;2022-10-31T05:01:38;19.40;;;8.77;;
74922;SDS011;64715;44.760;37.678;2022-10-31T05:02:53;14.50;;;7.55;;
74922;SDS011;64715;44.760;37.678;2022-10-31T05:03:57;14.88;;;6.68;;
74922;SDS011;64715;44.760;37.678;2022-10-31T05:04:59;12.70;;;6.20;;
74922;SDS011;64715;44.760;37.678;2022-10-31T05:06:01;14.88;;;6.20;;
74922;SDS011;64715;44.760;37.678;2022-10-31T05:07:02;13.30;;;5.97;;
74922;SDS011;64715;44.760;37.678;2022-10-31T05:08:03;13.75;;;6.57;;
74922;SDS011;64715;44.760;37.678;2022-10-31T05:09:06;21.33;;;12.07;;
74922;SDS011;64715;44.760;37.678;2022-10-31T05:10:08;12.20;;;5.10;;
74922;SDS011;64715;44.760;37.678;2022-10-31T05:11:10;11.07;;;5.07;;
74922;SDS011;64715;44.760;37.678;2022-10-31T05:12:12;10.90;;;5.30;;
74922;SDS011;64715;44.760;37.678;2022-10-31T05:13:33;12.63;;;5.05;;
74922;SDS011;64715;44.760;37.678;2022-10-31T05:14:47;8.65;;;4.45;;
74922;SDS011;64715;44.760;37.678;2022-10-31T05:16:20;12.23;;;4.60;;
74922;SDS011;64715;44.760;37.678;2022-10-31T05:17:40;9.30;;;4.30;;
74922;SDS011;64715;44.760;37.678;2022-10-31T05:18:44;9.65;;;4.30;;
74922;SDS011;64715;44.760;37.678;2022-10-31T05:20:04;9.80;;;4.28;;
74922;SDS011;64715;44.760;37.678;2022-10-31T05:21:24;11.18;;;4.43;;
74922;SDS011;64715;44.760;37.678;2022-10-31T05:22:28;10.30;;;4.57;;
74922;SDS011;64715;44.760;37.678;2022-10-31T05:23:29;11.57;;;4.82;;
74922;SDS011;64715;44.760;37.678;2022-10-31T05:24:31;10.93;;;4.82;;
74922;SDS011;64715;44.760;37.678;2022-10-31T05:25:32;9.68;;;4.88;;
74922;SDS011;64715;44.760;37.678;2022-10-31T05:26:37;10.48;;;4.68;;
74922;SDS011;64715;44.760;37.678;2022-10-31T05:27:42;10.95;;;4.20;;
74922;SDS011;64715;44.760;37.678;2022-10-31T05:28:44;9.10;;;4.03;;
74922;SDS011;64715;44.760;37.678;2022-10-31T05:29:45;10.55;;;4.18;;
74922;SDS011;64715;44.760;37.678;2022-10-31T05:30:47;8.57;;;4.15;;
74922;SDS011;64715;44.760;37.678;2022-10-31T05:31:50;11.67;;;4.10;;
74922;SDS011;64715;44.760;37.678;2022-10-31T05:33:26;10.20;;;3.80;;
74922;SDS011;64715;44.760;37.678;2022-10-31T05:34:45;10.05;;;3.92;;
74922;SDS011;64715;44.760;37.678;2022-10-31T05:36:09;8.88;;;4.30;;
74922;SDS011;64715;44.760;37.678;2022-10-31T05:37:16;9.10;;;3.95;;
74922;SDS011;64715;44.760;37.678;2022-10-31T05:38:17;12.07;;;3.92;;
74922;SDS011;64715;44.760;37.678;2022-10-31T05:39:18;11.65;;;3.80;;
74922;SDS011;64715;44.760;37.678;2022-10-31T05:40:27;11.02;;;4.25;;
74922;SDS011;64715;44.760;37.678;2022-10-31T05:41:28;9.43;;;4.40;;
74922;SDS011;64715;44.760;37.678;2022-10-31T05:42:41;9.60;;;4.05;;
74922;SDS011;64715;44.760;37.678;2022-10-31T05:43:43;10.40;;;4.50;;
74922;SDS011;64715;44.760;37.678;2022-10-31T05:44:47;10.75;;;5.43;;
74922;SDS011;64715;44.760;37.678;2022-10-31T05:45:56;10.02;;;4.70;;
74922;SDS011;64715;44.760;37.678;2022-10-31T05:47:15;10.38;;;5.00;;
74922;SDS011;64715;44.760;37.678;2022-10-31T05:48:35;8.95;;;4.53;;
74922;SDS011;64715;44.760;37.678;2022-10-31T05:50:03;8.55;;;3.83;;
74922;SDS011;64715;44.760;37.678;2022-10-31T05:51:20;11.75;;;5.55;;
74922;SDS011;64715;44.760;37.678;2022-10-31T05:52:21;9.35;;;4.28;;
74922;SDS011;64715;44.760;37.678;2022-10-31T05:53:29;7.75;;;3.78;;
74922;SDS011;64715;44.760;37.678;2022-10-31T05:54:30;8.80;;;4.10;;
74922;SDS011;64715;44.760;37.678;2022-10-31T05:55:32;8.35;;;4.20;;
74922;SDS011;64715;44.760;37.678;2022-10-31T05:56:41;9.02;;;4.10;;
74922;SDS011;64715;44.760;37.678;2022-10-31T05:57:43;10.45;;;4.60;;
74922;SDS011;64715;44.760;37.678;2022-10-31T05:58:44;11.32;;;4.32;;
74922;SDS011;64715;44.760;37.678;2022-10-31T05:59:45;8.80;;;4.15;;
74922;SDS011;64715;44.760;37.678;2022-10-31T06:00:46;9.40;;;5.05;;
74922;SDS011;64715;44.760;37.678;2022-10-31T06:01:47;8.63;;;4.40;;
74922;SDS011;64715;44.760;37.678;2022-10-31T06:03:04;8.87;;;4.00;;
74922;SDS011;64715;44.760;37.678;2022-10-31T06:04:29;9.35;;;4.00;;
74922;SDS011;64715;44.760;37.678;2022-10-31T06:05:32;9.00;;;4.60;;
74922;SDS011;64715;44.760;37.678;2022-10-31T06:06:33;10.82;;;5.97;;
74922;SDS011;64715;44.760;37.678;2022-10-31T06:07:34;13.32;;;6.50;;
74922;SDS011;64715;44.760;37.678;2022-10-31T06:08:37;10.80;;;5.00;;
74922;SDS011;64715;44.760;37.678;2022-10-31T06:09:41;9.38;;;4.32;;
74922;SDS011;64715;44.760;37.678;2022-10-31T06:10:42;11.80;;;3.97;;
74922;SDS011;64715;44.760;37.678;2022-10-31T06:11:52;7.65;;;4.07;;
74922;SDS011;64715;44.760;37.678;2022-10-31T06:12:59;12.02;;;6.10;;
74922;SDS011;64715;44.760;37.678;2022-10-31T06:14:09;12.13;;;5.33;;
74922;SDS011;64715;44.760;37.678;2022-10-31T06:15:19;12.77;;;5.45;;
74922;SDS011;64715;44.760;37.678;2022-10-31T06:16:21;10.10;;;4.55;;
74922;SDS011;64715;44.760;37.678;2022-10-31T06:17:22;8.70;;;4.35;;
74922;SDS011;64715;44.760;37.678;2022-10-31T06:18:23;9.15;;;4.20;;
74922;SDS011;64715;44.760;37.678;2022-10-31T06:19:27;10.02;;;4.75;;
74922;SDS011;64715;44.760;37.678;2022-10-31T06:20:28;7.78;;;3.53;;
74922;SDS011;64715;44.760;37.678;2022-10-31T06:21:34;8.35;;;3.50;;
74922;SDS011;64715;44.760;37.678;2022-10-31T06:22:35;6.90;;;3.30;;
74922;SDS011;64715;44.760;37.678;2022-10-31T06:23:37;8.60;;;3.60;;
74922;SDS011;64715;44.760;37.678;2022-10-31T06:25:17;8.25;;;3.63;;
74922;SDS011;64715;44.760;37.678;2022-10-31T06:26:22;8.48;;;3.42;;
74922;SDS011;64715;44.760;37.678;2022-10-31T06:27:23;7.75;;;3.40;;
74922;SDS011;64715;44.760;37.678;2022-10-31T06:28:25;8.32;;;3.58;;
74922;SDS011;64715;44.760;37.678;2022-10-31T06:29:30;10.93;;;4.10;;
74922;SDS011;64715;44.760;37.678;2022-10-31T06:30:38;7.88;;;3.55;;
74922;SDS011;64715;44.760;37.678;2022-10-31T06:31:39;7.10;;;3.28;;
74922;SDS011;64715;44.760;37.678;2022-10-31T06:32:40;9.40;;;3.50;;
74922;SDS011;64715;44.760;37.678;2022-10-31T06:33:43;8.13;;;3.50;;
74922;SDS011;64715;44.760;37.678;2022-10-31T06:34:44;9.75;;;3.45;;
74922;SDS011;64715;44.760;37.678;2022-10-31T06:35:48;7.45;;;3.30;;
74922;SDS011;64715;44.760;37.678;2022-10-31T06:36:51;7.82;;;3.88;;
74922;SDS011;64715;44.760;37.678;2022-10-31T06:37:55;8.75;;;3.30;;
74922;SDS011;64715;44.760;37.678;2022-10-31T06:39:09;7.38;;;3.45;;
74922;SDS011;64715;44.760;37.678;2022-10-31T06:40:10;8.20;;;3.65;;
74922;SDS011;64715;44.760;37.678;2022-10-31T06:41:32;8.88;;;3.63;;
74922;SDS011;64715;44.760;37.678;2022-10-31T06:42:33;9.60;;;4.60;;
74922;SDS011;64715;44.760;37.678;2022-10-31T06:43:35;9.13;;;3.50;;
74922;SDS011;64715;44.760;37.678;2022-10-31T06:44:57;9.00;;;3.70;;
74922;SDS011;64715;44.760;37.678;2022-10-31T06:46:16;9.50;;;3.95;;
74922;SDS011;64715;44.760;37.678;2022-10-31T06:47:33;10.07;;;3.63;;
74922;SDS011;64715;44.760;37.678;2022-10-31T06:48:48;7.80;;;3.30;;
74922;SDS011;64715;44.760;37.678;2022-10-31T06:49:54;8.43;;;3.80;;
74922;SDS011;64715;44.760;37.678;2022-10-31T06:51:00;11.10;;;3.83;;
74922;SDS011;64715;44.760;37.678;2022-10-31T06:52:01;10.65;;;3.40;;
74922;SDS011;64715;44.760;37.678;2022-10-31T06:53:03;9.88;;;4.13;;
74922;SDS011;64715;44.760;37.678;2022-10-31T06:54:04;9.85;;;4.30;;